createdAt,value
2023-01-12T00:02:32.478Z,9.47
2023-01-12T00:05:05.210Z,9.45
2023-01-12T00:07:38.182Z,9.47
2023-01-12T00:10:15.413Z,9.31
2023-01-12T00:12:48.353Z,9.31
2023-01-12T00:15:40.991Z,9.38
2023-01-12T00:18:13.527Z,9.45
2023-01-12T00:20:51.540Z,9.38
2023-01-12T00:23:23.987Z,9.34
2023-01-12T00:25:56.586Z,9.49
2023-01-12T00:28:29.476Z,9.48
2023-01-12T00:31:04.926Z,9.52
2023-01-12T00:33:38.929Z,9.39
2023-01-12T00:36:17.360Z,9.34
2023-01-12T00:38:50.219Z,9.41
2023-01-12T00:41:36.934Z,9.35
2023-01-12T00:44:27.205Z,9.33
2023-01-12T00:47:00.464Z,9.36
2023-01-12T00:49:33.155Z,9.38
2023-01-12T00:52:11.377Z,9.25
2023-01-12T00:54:45.978Z,9.23
2023-01-12T00:57:19.443Z,9.22
2023-01-12T00:59:55.615Z,9.26
2023-01-12T01:02:31.369Z,9.15
2023-01-12T01:05:05.932Z,9.18
2023-01-12T01:07:39.244Z,9.16
2023-01-12T01:10:13.738Z,9.12
2023-01-12T01:12:46.496Z,9.02
2023-01-12T01:15:19.116Z,8.98
2023-01-12T01:17:51.642Z,9.06
2023-01-12T01:20:24.521Z,9.10
2023-01-12T01:22:57.567Z,9.03
2023-01-12T01:25:30.823Z,9.04
2023-01-12T01:28:04.088Z,9.05
2023-01-12T01:30:36.488Z,9.05
2023-01-12T01:33:09.012Z,8.93
2023-01-12T01:35:41.831Z,8.96
2023-01-12T01:38:17.660Z,9.02
2023-01-12T01:40:50.199Z,9.03
2023-01-12T01:43:25.432Z,9.03
2023-01-12T01:46:04.007Z,8.91
2023-01-12T01:48:40.904Z,8.87
2023-01-12T01:51:17.286Z,8.96
2023-01-12T01:53:51.575Z,8.88
2023-01-12T01:56:27.913Z,9.01
2023-01-12T01:59:06.583Z,8.86
2023-01-12T02:01:40.068Z,8.79
2023-01-12T02:04:13.026Z,8.69
2023-01-12T02:06:46.007Z,8.72
2023-01-12T02:09:22.800Z,8.78
2023-01-12T02:12:14.527Z,8.73
2023-01-12T02:15:08.495Z,8.65
2023-01-12T02:17:53.217Z,8.75
2023-01-12T02:20:48.592Z,8.78
2023-01-12T02:23:47.182Z,8.66
2023-01-12T02:26:57.753Z,8.82
2023-01-12T02:30:03.137Z,8.79
2023-01-12T02:32:46.735Z,8.81
2023-01-12T02:35:27.964Z,8.92
2023-01-12T02:38:09.531Z,8.87
2023-01-12T02:40:49.211Z,8.83
2023-01-12T02:43:27.132Z,8.78
2023-01-12T02:46:07.213Z,8.84
2023-01-12T02:48:47.083Z,8.92
2023-01-12T02:51:25.301Z,9.00
2023-01-12T02:54:04.244Z,8.95
2023-01-12T02:56:41.129Z,8.82
2023-01-12T02:59:18.038Z,8.80
2023-01-12T03:01:53.461Z,8.74
2023-01-12T03:04:30.253Z,8.68
2023-01-12T03:07:33.238Z,8.82
2023-01-12T03:10:18.141Z,8.99
2023-01-12T03:12:52.794Z,8.85
2023-01-12T03:15:28.930Z,8.86
2023-01-12T03:18:05.346Z,8.76
2023-01-12T03:20:40.809Z,8.72
2023-01-12T03:23:17.524Z,8.86
2023-01-12T03:25:53.210Z,8.96
2023-01-12T03:28:29.139Z,8.95
2023-01-12T03:31:07.804Z,8.95
2023-01-12T03:33:41.379Z,8.92
2023-01-12T03:36:21.671Z,8.79
2023-01-12T03:39:03.112Z,8.89
2023-01-12T03:41:46.685Z,8.79
2023-01-12T03:44:29.128Z,8.91
2023-01-12T03:47:06.490Z,8.86
2023-01-12T03:49:42.815Z,8.78
2023-01-12T03:52:17.004Z,8.89
2023-01-12T03:54:51.752Z,8.81
2023-01-12T03:57:24.666Z,8.83
2023-01-12T04:00:00.868Z,8.75
2023-01-12T04:02:34.324Z,8.70
2023-01-12T04:05:08.924Z,8.70
2023-01-12T04:07:41.372Z,8.70
2023-01-12T04:10:14.339Z,8.69
2023-01-12T04:12:46.820Z,8.60
2023-01-12T04:15:19.253Z,8.56
2023-01-12T04:17:51.722Z,8.44
2023-01-12T04:20:24.533Z,8.52
2023-01-12T04:22:56.884Z,8.51
2023-01-12T04:25:29.534Z,8.46
2023-01-12T04:28:02.460Z,8.21
2023-01-12T04:30:36.184Z,8.42
2023-01-12T04:33:11.525Z,8.53
2023-01-12T04:35:44.342Z,8.60
2023-01-12T04:38:18.225Z,8.54
2023-01-12T04:40:56.426Z,8.55
2023-01-12T04:43:28.760Z,8.52
2023-01-12T04:46:05.642Z,8.54
2023-01-12T04:48:39.311Z,8.52
2023-01-12T04:51:12.641Z,8.38
2023-01-12T04:53:44.997Z,8.39
2023-01-12T04:56:18.291Z,8.43
2023-01-12T04:58:55.901Z,8.35
2023-01-12T05:01:29.633Z,8.45
2023-01-12T05:04:02.449Z,8.37
2023-01-12T05:06:34.895Z,8.25
2023-01-12T05:09:24.583Z,8.27
2023-01-12T05:11:56.982Z,8.09
2023-01-12T05:14:30.404Z,8.13
2023-01-12T05:17:03.204Z,8.08
2023-01-12T05:19:35.636Z,8.11
2023-01-12T05:22:08.569Z,8.10
2023-01-12T05:24:40.932Z,8.16
2023-01-12T05:27:13.766Z,8.00
2023-01-12T05:29:49.553Z,7.93
2023-01-12T05:32:22.209Z,7.91
2023-01-12T05:34:54.595Z,7.88
2023-01-12T05:37:27.836Z,7.88
2023-01-12T05:40:00.651Z,7.87
2023-01-12T05:42:50.765Z,8.06
2023-01-12T05:45:23.172Z,8.05
2023-01-12T05:48:02.030Z,7.96
2023-01-12T05:50:34.533Z,8.06
2023-01-12T05:53:13.609Z,8.13
2023-01-12T05:55:47.683Z,7.93
2023-01-12T05:58:20.030Z,7.86
2023-01-12T06:00:52.801Z,7.87
2023-01-12T06:03:27.708Z,7.73
2023-01-12T06:06:00.304Z,7.86
2023-01-12T06:08:32.832Z,7.90
2023-01-12T06:11:06.153Z,7.77
2023-01-12T06:13:56.267Z,7.86
2023-01-12T06:16:32.023Z,8.02
2023-01-12T06:19:15.785Z,8.09
2023-01-12T06:21:48.647Z,8.01
2023-01-12T06:24:21.654Z,8.06
2023-01-12T06:26:54.698Z,7.96
2023-01-12T06:29:27.124Z,7.93
2023-01-12T06:31:59.499Z,7.90
2023-01-12T06:34:35.429Z,7.79
2023-01-12T06:37:08.649Z,7.86
2023-01-12T06:39:41.456Z,8.01
2023-01-12T06:42:33.394Z,8.03
2023-01-12T06:45:06.425Z,8.04
2023-01-12T06:47:49.483Z,8.09
2023-01-12T06:50:22.645Z,8.02
2023-01-12T06:52:55.814Z,7.93
2023-01-12T06:55:28.789Z,7.86
2023-01-12T06:58:04.811Z,7.73
2023-01-12T07:00:37.474Z,7.82
2023-01-12T07:03:14.321Z,7.95
2023-01-12T07:05:47.060Z,7.93
2023-01-12T07:08:19.899Z,7.93
2023-01-12T07:10:52.516Z,7.77
2023-01-12T07:13:25.181Z,7.84
2023-01-12T07:15:59.103Z,7.93
2023-01-12T07:18:49.624Z,7.85
2023-01-12T07:21:22.411Z,8.01
2023-01-12T07:23:54.938Z,7.88
2023-01-12T07:26:27.571Z,8.03
2023-01-12T07:28:59.933Z,8.12
2023-01-12T07:31:33.473Z,8.05
2023-01-12T07:34:05.926Z,8.09
2023-01-12T07:36:38.429Z,8.16
2023-01-12T07:39:12.959Z,8.07
2023-01-12T07:42:14.516Z,8.03
2023-01-12T07:44:46.835Z,8.13
2023-01-12T07:47:25.271Z,8.05
2023-01-12T07:49:57.845Z,8.13
2023-01-12T07:52:30.316Z,8.12
2023-01-12T07:55:02.840Z,8.20
2023-01-12T07:58:26.045Z,8.34
2023-01-12T08:01:18.226Z,8.23
2023-01-12T08:03:53.383Z,8.16
2023-01-12T08:06:43.597Z,8.13
2023-01-12T08:09:16.020Z,8.32
2023-01-12T08:11:48.485Z,8.29
2023-01-12T08:14:30.438Z,8.35
2023-01-12T08:17:04.732Z,8.36
2023-01-12T08:19:42.189Z,8.48
2023-01-12T08:22:20.286Z,8.40
2023-01-12T08:24:56.839Z,8.39
2023-01-12T08:27:33.353Z,8.45
2023-01-12T08:30:08.875Z,8.52
2023-01-12T08:32:41.370Z,8.43
2023-01-12T08:35:16.349Z,8.54
2023-01-12T08:37:48.819Z,8.56
2023-01-12T08:40:21.428Z,8.52
2023-01-12T08:42:53.750Z,8.55
2023-01-12T08:45:26.444Z,8.60
2023-01-12T08:47:59.578Z,8.69
2023-01-12T08:50:32.026Z,8.62
2023-01-12T08:53:04.476Z,8.63
2023-01-12T08:55:36.965Z,8.76
2023-01-12T08:58:09.446Z,8.78
2023-01-12T09:00:42.280Z,8.91
2023-01-12T09:03:14.673Z,8.80
2023-01-12T09:05:49.989Z,8.82
2023-01-12T09:08:22.618Z,8.95
2023-01-12T09:11:19.931Z,9.01
2023-01-12T09:14:01.509Z,9.00
2023-01-12T09:16:41.049Z,9.08
2023-01-12T09:19:13.695Z,9.06
2023-01-12T09:21:46.250Z,9.02
2023-01-12T09:24:18.881Z,9.00
2023-01-12T09:26:51.382Z,9.05
2023-01-12T09:29:23.896Z,9.13
2023-01-12T09:31:56.716Z,9.02
2023-01-12T09:34:29.517Z,9.14
2023-01-12T09:37:02.423Z,9.02
2023-01-12T09:39:34.831Z,9.07
2023-01-12T09:42:33.535Z,9.06
2023-01-12T09:45:32.124Z,9.03
2023-01-12T09:48:05.202Z,9.12
2023-01-12T09:50:41.006Z,8.92
2023-01-12T09:53:20.234Z,9.09
2023-01-12T09:56:03.102Z,8.99
2023-01-12T09:58:52.580Z,9.07
2023-01-12T10:01:29.573Z,9.32
2023-01-12T10:04:05.273Z,9.35
2023-01-12T10:06:37.760Z,9.52
2023-01-12T10:09:14.935Z,9.48
2023-01-12T10:12:01.954Z,9.48
2023-01-12T10:15:09.311Z,9.56
2023-01-12T10:17:51.918Z,9.70
2023-01-12T10:20:32.215Z,9.63
2023-01-12T10:23:16.836Z,9.77
2023-01-12T10:25:51.662Z,9.99
2023-01-12T10:28:25.543Z,9.92
2023-01-12T10:30:59.131Z,10.11
2023-01-12T10:33:34.398Z,10.04
2023-01-12T10:36:07.980Z,10.04
2023-01-12T10:38:55.626Z,10.00
2023-01-12T10:41:29.102Z,10.22
2023-01-12T10:44:16.927Z,10.36
2023-01-12T10:47:12.007Z,10.43
2023-01-12T10:49:44.688Z,10.44
2023-01-12T10:53:12.181Z,10.29
2023-01-12T10:55:47.520Z,10.36
2023-01-12T10:58:28.302Z,10.28
2023-01-12T11:01:01.559Z,10.28
2023-01-12T11:03:37.478Z,10.23
2023-01-12T11:06:27.862Z,10.29
2023-01-12T11:09:00.528Z,10.33
2023-01-12T11:11:34.472Z,10.15
2023-01-12T11:14:13.188Z,10.18
2023-01-12T11:16:51.743Z,10.18
2023-01-12T11:19:30.732Z,10.18
2023-01-12T11:22:10.272Z,10.21
2023-01-12T11:24:47.599Z,10.42
2023-01-12T11:27:23.682Z,10.48
2023-01-12T11:30:00.260Z,10.44
2023-01-12T11:32:44.153Z,10.56
2023-01-12T11:35:29.521Z,10.57
2023-01-12T11:38:02.452Z,10.63
2023-01-12T11:40:37.720Z,10.65
2023-01-12T11:43:52.613Z,10.64
2023-01-12T11:46:29.984Z,10.61
2023-01-12T11:49:12.692Z,10.52
2023-01-12T11:51:49.030Z,10.78
2023-01-12T11:54:22.189Z,10.59
2023-01-12T11:57:20.620Z,10.91
2023-01-12T12:00:03.979Z,11.04
2023-01-12T12:02:50.353Z,11.21
2023-01-12T12:05:36.427Z,11.39
2023-01-12T12:08:25.456Z,11.41
2023-01-12T12:11:06.691Z,11.45
2023-01-12T12:13:50.905Z,11.58
2023-01-12T12:16:32.179Z,11.67
2023-01-12T12:19:23.414Z,11.76
2023-01-12T12:22:05.389Z,11.75
2023-01-12T12:25:04.481Z,11.86
2023-01-12T12:27:53.974Z,11.93
2023-01-12T12:30:40.548Z,12.08
2023-01-12T12:33:23.115Z,12.02
2023-01-12T12:36:08.850Z,11.95
2023-01-12T12:38:56.412Z,11.80
2023-01-12T12:41:56.078Z,11.51
2023-01-12T12:45:02.961Z,11.63
2023-01-12T12:47:54.144Z,11.61
2023-01-12T12:50:30.500Z,11.39
2023-01-12T12:53:14.162Z,11.35
2023-01-12T12:55:47.795Z,11.32
2023-01-12T12:58:44.550Z,11.26
2023-01-12T13:01:57.220Z,11.14
2023-01-12T13:05:07.293Z,11.22
2023-01-12T13:07:46.714Z,11.13
2023-01-12T13:10:24.556Z,11.18
2023-01-12T13:13:23.648Z,11.20
2023-01-12T13:16:45.066Z,11.18
2023-01-12T13:19:41.104Z,11.11
2023-01-12T13:22:43.801Z,11.14
2023-01-12T13:25:47.584Z,11.06
2023-01-12T13:28:22.863Z,11.14
2023-01-12T13:30:57.216Z,11.05
2023-01-12T13:33:30.839Z,11.07
2023-01-12T13:36:10.698Z,11.09
2023-01-12T13:38:53.753Z,10.89
2023-01-12T13:41:50.066Z,11.10
2023-01-12T13:44:27.847Z,11.15
2023-01-12T13:47:09.667Z,11.19
2023-01-12T13:49:51.987Z,11.19
2023-01-12T13:52:32.096Z,11.03
2023-01-12T13:55:06.230Z,11.00
2023-01-12T13:57:38.749Z,11.09
2023-01-12T14:00:23.851Z,11.11
2023-01-12T14:02:57.430Z,11.04
2023-01-12T14:05:52.156Z,10.94
2023-01-12T14:08:52.054Z,10.97
2023-01-12T14:11:45.888Z,10.95
2023-01-12T14:14:56.246Z,10.97
2023-01-12T14:17:47.740Z,10.85
2023-01-12T14:20:23.136Z,10.90
2023-01-12T14:23:16.133Z,10.90
2023-01-12T14:26:04.220Z,10.82
2023-01-12T14:28:42.460Z,10.90
2023-01-12T14:31:25.680Z,10.82
2023-01-12T14:34:00.947Z,10.90
2023-01-12T14:36:38.371Z,10.82
2023-01-12T14:39:17.086Z,10.89
2023-01-12T14:42:14.314Z,10.91
2023-01-12T14:45:14.756Z,10.83
2023-01-12T14:47:47.174Z,10.84
2023-01-12T14:50:22.271Z,10.88
2023-01-12T14:52:54.631Z,10.77
2023-01-12T14:55:41.649Z,10.82
2023-01-12T14:58:22.419Z,10.84
2023-01-12T15:00:55.001Z,10.82
2023-01-12T15:03:35.368Z,10.91
2023-01-12T15:06:18.723Z,10.90
2023-01-12T15:09:00.363Z,10.89
2023-01-12T15:11:36.559Z,10.82
2023-01-12T15:14:20.948Z,10.70
2023-01-12T15:17:11.751Z,10.66
2023-01-12T15:20:01.346Z,10.74
2023-01-12T15:22:51.556Z,10.76
2023-01-12T15:25:39.340Z,10.69
2023-01-12T15:28:11.726Z,10.71
2023-01-12T15:30:44.839Z,10.65
2023-01-12T15:33:17.647Z,10.56
2023-01-12T15:35:50.302Z,10.57
2023-01-12T15:38:22.744Z,10.48
2023-01-12T15:40:55.287Z,10.49
2023-01-12T15:43:27.819Z,10.40
2023-01-12T15:46:00.459Z,10.61
2023-01-12T15:48:33.154Z,10.67
2023-01-12T15:51:05.850Z,10.57
2023-01-12T15:53:38.312Z,10.64
2023-01-12T15:56:15.381Z,10.59
2023-01-12T15:58:47.893Z,10.48
2023-01-12T16:01:21.476Z,10.52
2023-01-12T16:04:24.940Z,10.63
2023-01-12T16:06:46.930Z,10.61
2023-01-12T16:09:19.815Z,10.63
2023-01-12T16:11:52.220Z,10.60
2023-01-12T16:14:25.158Z,10.49
2023-01-12T16:16:57.835Z,10.34
2023-01-12T16:19:30.660Z,10.37
2023-01-12T16:22:03.152Z,10.50
2023-01-12T16:24:36.975Z,10.52
2023-01-12T16:27:09.578Z,10.53
2023-01-12T16:29:42.255Z,10.31
2023-01-12T16:32:15.330Z,10.44
2023-01-12T16:34:47.951Z,10.39
2023-01-12T16:37:23.189Z,10.51
2023-01-12T16:39:57.050Z,10.42
2023-01-12T16:42:29.821Z,10.58
2023-01-12T16:45:02.519Z,10.50
2023-01-12T16:47:35.278Z,10.42
2023-01-12T16:50:10.055Z,10.44
2023-01-12T16:53:02.850Z,10.43
2023-01-12T16:55:41.727Z,10.51
2023-01-12T16:58:12.581Z,10.54
2023-01-12T17:00:45.253Z,10.50
2023-01-12T17:03:17.852Z,10.49
2023-01-12T17:05:52.276Z,10.63
2023-01-12T17:08:29.521Z,10.44
2023-01-12T17:11:07.675Z,10.51
2023-01-12T17:13:41.329Z,10.61
2023-01-12T17:16:15.047Z,10.37
2023-01-12T17:18:50.033Z,10.45
2023-01-12T17:21:23.279Z,10.49
2023-01-12T17:23:59.329Z,10.43
2023-01-12T17:26:34.267Z,10.38
2023-01-12T17:29:06.951Z,10.37
2023-01-12T17:31:40.341Z,10.46
2023-01-12T17:34:17.411Z,10.53
2023-01-12T17:37:13.366Z,10.58
2023-01-12T17:39:59.143Z,10.54
2023-01-12T17:42:49.433Z,10.50
2023-01-12T17:45:21.899Z,10.52
2023-01-12T17:48:00.447Z,10.50
2023-01-12T17:50:33.054Z,10.61
2023-01-12T17:53:28.495Z,10.55
2023-01-12T17:56:06.575Z,10.46
2023-01-12T17:58:39.135Z,10.47
2023-01-12T18:01:15.320Z,10.61
2023-01-12T18:03:48.100Z,10.56
2023-01-12T18:06:26.388Z,10.56
2023-01-12T18:09:49.524Z,10.47
2023-01-12T18:15:52.930Z,10.48
2023-01-12T18:18:27.392Z,10.55
2023-01-12T18:21:06.039Z,10.67
2023-01-12T18:23:42.192Z,10.56
2023-01-12T18:26:16.702Z,10.64
2023-01-12T18:28:49.272Z,10.60
2023-01-12T18:31:24.226Z,10.60
2023-01-12T18:34:00.923Z,10.46
2023-01-12T18:36:34.483Z,10.66
2023-01-12T18:39:08.925Z,10.58
2023-01-12T18:42:08.969Z,10.62
2023-01-12T18:44:44.177Z,10.62
2023-01-12T18:47:50.437Z,10.54
2023-01-12T18:50:41.813Z,10.67
2023-01-12T18:53:25.844Z,10.53
2023-01-12T18:56:08.106Z,10.61
2023-01-12T18:58:43.243Z,10.56
2023-01-12T19:01:25.495Z,10.55
2023-01-12T19:04:39.785Z,10.65
2023-01-12T19:07:45.153Z,10.59
2023-01-12T19:10:42.118Z,10.70
2023-01-12T19:13:32.024Z,10.61
2023-01-12T19:16:22.581Z,10.62
2023-01-12T19:18:55.166Z,10.51
2023-01-12T19:21:47.853Z,10.60
2023-01-12T19:24:38.073Z,10.54
2023-01-12T19:27:40.707Z,10.53
2023-01-12T19:30:14.784Z,10.50
2023-01-12T19:32:47.620Z,10.66
2023-01-12T19:35:20.440Z,10.63
2023-01-12T19:37:53.230Z,10.74
2023-01-12T19:40:33.208Z,10.71
2023-01-12T19:43:12.909Z,10.73
2023-01-12T19:45:47.053Z,10.76
2023-01-12T19:48:38.705Z,10.68
2023-01-12T19:51:13.064Z,10.78
2023-01-12T19:53:45.677Z,10.71
2023-01-12T19:56:18.513Z,10.70
2023-01-12T19:58:51.942Z,10.66
2023-01-12T20:01:25.200Z,10.61
2023-01-12T20:03:57.869Z,10.74
2023-01-12T20:06:30.499Z,10.68
2023-01-12T20:09:02.842Z,10.63
2023-01-12T20:11:35.329Z,10.63
2023-01-12T20:14:07.743Z,10.64
2023-01-12T20:16:40.178Z,10.69
2023-01-12T20:19:13.039Z,10.72
2023-01-12T20:21:46.484Z,10.74
2023-01-12T20:24:19.105Z,10.66
2023-01-12T20:26:52.000Z,10.67
2023-01-12T20:29:24.929Z,10.75
2023-01-12T20:31:58.910Z,10.61
2023-01-12T20:34:32.165Z,10.77
2023-01-12T20:37:04.824Z,10.69
2023-01-12T20:39:37.753Z,10.80
2023-01-12T20:42:11.259Z,10.80
2023-01-12T20:44:44.171Z,10.72
2023-01-12T20:47:19.185Z,10.79
2023-01-12T20:49:51.879Z,10.77
2023-01-12T20:52:25.031Z,10.65
2023-01-12T20:54:57.459Z,10.63
2023-01-12T20:57:30.981Z,10.65
2023-01-12T21:00:03.919Z,10.59
2023-01-12T21:02:36.893Z,10.67
2023-01-12T21:05:11.006Z,10.76
2023-01-12T21:07:43.955Z,10.82
2023-01-12T21:10:17.135Z,10.75
2023-01-12T21:12:49.664Z,10.66
2023-01-12T21:15:22.285Z,10.73
2023-01-12T21:17:55.811Z,10.90
2023-01-12T21:20:28.327Z,10.82
2023-01-12T21:23:01.074Z,10.78
2023-01-12T21:25:33.584Z,10.84
2023-01-12T21:28:06.504Z,10.85
2023-01-12T21:30:40.048Z,10.85
2023-01-12T21:33:12.914Z,10.71
2023-01-12T21:35:45.533Z,10.78
2023-01-12T21:38:19.213Z,10.79
2023-01-12T21:40:51.647Z,10.67
2023-01-12T21:43:24.999Z,10.73
2023-01-12T21:46:03.855Z,10.77
2023-01-12T21:48:36.822Z,10.81
2023-01-12T21:51:13.096Z,10.77
2023-01-12T21:53:45.950Z,10.78
2023-01-12T21:56:18.489Z,10.77
2023-01-12T21:58:52.023Z,10.74
2023-01-12T22:01:24.893Z,10.77
2023-01-12T22:04:00.000Z,10.76
2023-01-12T22:06:32.595Z,10.73
2023-01-12T22:09:05.189Z,10.76
2023-01-12T22:11:37.902Z,10.83
2023-01-12T22:14:27.065Z,10.80
2023-01-12T22:16:59.514Z,10.81
2023-01-12T22:19:31.984Z,10.74
2023-01-12T22:22:06.350Z,10.76
2023-01-12T22:24:39.173Z,10.91
2023-01-12T22:27:11.637Z,10.94
2023-01-12T22:29:44.262Z,10.97
2023-01-12T22:32:17.104Z,10.99
2023-01-12T22:34:49.536Z,10.82
2023-01-12T22:37:22.036Z,10.81
2023-01-12T22:39:54.482Z,10.78
2023-01-12T22:42:47.107Z,10.70
2023-01-12T22:45:19.869Z,10.80
2023-01-12T22:47:55.470Z,10.71
2023-01-12T22:50:27.950Z,10.63
2023-01-12T22:53:00.333Z,10.55
2023-01-12T22:55:33.016Z,10.49
2023-01-12T22:58:06.566Z,10.53
2023-01-12T23:00:39.939Z,10.64
2023-01-12T23:03:14.280Z,10.53
2023-01-12T23:05:56.467Z,10.59
2023-01-12T23:08:29.023Z,10.61
2023-01-12T23:11:09.597Z,10.65
2023-01-12T23:13:43.771Z,10.54
2023-01-12T23:16:21.000Z,10.54
2023-01-12T23:18:55.437Z,10.45
2023-01-12T23:21:29.629Z,10.44
2023-01-12T23:24:04.007Z,10.48
2023-01-12T23:26:36.965Z,10.55
2023-01-12T23:29:09.641Z,10.60
2023-01-12T23:31:42.332Z,10.54
2023-01-12T23:34:14.958Z,10.58
2023-01-12T23:36:49.593Z,10.49
2023-01-12T23:39:21.899Z,10.53
2023-01-12T23:41:54.264Z,10.42
2023-01-12T23:44:26.599Z,10.51
2023-01-12T23:47:00.683Z,10.46
2023-01-12T23:49:33.114Z,10.55
2023-01-12T23:52:05.609Z,10.58
2023-01-12T23:54:38.756Z,10.50
2023-01-12T23:57:11.174Z,10.40
2023-01-12T23:59:43.590Z,10.49
